createdAt,value
2018-05-27T00:00:22.127Z,0
2018-05-27T00:01:30.162Z,0
2018-05-27T00:02:38.263Z,0
2018-05-27T00:03:46.330Z,0
2018-05-27T00:04:54.396Z,0
2018-05-27T00:06:02.467Z,0
2018-05-27T00:07:10.532Z,0
2018-05-27T00:08:18.601Z,0
2018-05-27T00:09:26.667Z,0
2018-05-27T00:10:34.732Z,0
2018-05-27T00:11:42.793Z,0
2018-05-27T00:12:50.868Z,0
2018-05-27T00:13:58.994Z,0
2018-05-27T00:15:06.994Z,0
2018-05-27T00:16:15.063Z,0
2018-05-27T00:17:23.118Z,0
2018-05-27T00:18:31.221Z,0
2018-05-27T00:19:39.256Z,0
2018-05-27T00:20:47.330Z,0
2018-05-27T00:21:55.408Z,0
2018-05-27T00:23:03.472Z,0
2018-05-27T00:24:11.530Z,0
2018-05-27T00:25:19.577Z,0
2018-05-27T00:26:27.674Z,0
2018-05-27T00:27:35.757Z,0
2018-05-27T00:28:43.806Z,0
2018-05-27T00:29:51.879Z,0
2018-05-27T00:30:59.930Z,0
2018-05-27T00:32:08.023Z,0
2018-05-27T00:33:16.077Z,0
2018-05-27T00:34:24.154Z,0
2018-05-27T00:35:32.216Z,0
2018-05-27T00:36:40.282Z,0
2018-05-27T00:37:48.359Z,0
2018-05-27T00:38:56.411Z,0
2018-05-27T00:40:04.480Z,0
2018-05-27T00:41:12.549Z,0
2018-05-27T00:42:20.622Z,0
2018-05-27T00:43:28.688Z,0
2018-05-27T00:44:36.758Z,0
2018-05-27T00:45:44.821Z,0
2018-05-27T00:46:52.891Z,0
2018-05-27T00:48:00.959Z,0
2018-05-27T00:49:09.001Z,0
2018-05-27T00:50:17.096Z,0
2018-05-27T00:51:25.143Z,0
2018-05-27T00:52:33.230Z,0
2018-05-27T00:53:41.306Z,0
2018-05-27T00:54:49.351Z,0
2018-05-27T00:55:57.427Z,0
2018-05-27T00:57:05.497Z,0
2018-05-27T00:58:13.558Z,0
2018-05-27T00:59:21.641Z,0
2018-05-27T01:00:29.671Z,0
2018-05-27T01:01:37.769Z,0
2018-05-27T01:02:45.825Z,0
2018-05-27T01:03:53.896Z,0
2018-05-27T01:05:01.969Z,0
2018-05-27T01:06:10.004Z,0
2018-05-27T01:07:18.090Z,0
2018-05-27T01:08:26.181Z,0
2018-05-27T01:09:34.223Z,0
2018-05-27T01:10:42.298Z,0
2018-05-27T01:11:50.359Z,0
2018-05-27T01:12:58.455Z,0
2018-05-27T01:14:06.497Z,0
2018-05-27T01:15:14.580Z,0
2018-05-27T01:16:22.636Z,0
2018-05-27T01:17:30.686Z,0
2018-05-27T01:18:38.762Z,0
2018-05-27T01:19:46.841Z,0
2018-05-27T01:20:54.907Z,0
2018-05-27T01:22:02.978Z,0
2018-05-27T01:23:11.055Z,0
2018-05-27T01:24:19.101Z,0
2018-05-27T01:25:27.204Z,0
2018-05-27T01:26:35.259Z,0
2018-05-27T01:27:43.328Z,0
2018-05-27T01:28:51.402Z,0
2018-05-27T01:29:59.438Z,0
2018-05-27T01:31:07.532Z,0
2018-05-27T01:32:15.583Z,0
2018-05-27T01:33:23.632Z,0
2018-05-27T01:34:31.711Z,0
2018-05-27T01:35:39.762Z,0
2018-05-27T01:36:47.847Z,0
2018-05-27T01:37:55.934Z,0
2018-05-27T01:39:03.995Z,0
2018-05-27T01:40:12.062Z,0
2018-05-27T01:41:20.109Z,0
2018-05-27T01:42:28.193Z,0
2018-05-27T01:43:36.255Z,0
2018-05-27T01:44:44.341Z,0
2018-05-27T01:45:52.388Z,0
2018-05-27T01:47:00.455Z,0
2018-05-27T01:48:08.537Z,0
2018-05-27T01:49:16.603Z,0
2018-05-27T01:50:24.658Z,0
2018-05-27T01:51:32.727Z,0
2018-05-27T01:52:40.802Z,0
2018-05-27T01:53:48.897Z,0
2018-05-27T01:54:56.921Z,0
2018-05-27T01:56:05.016Z,0
2018-05-27T01:57:13.068Z,0
2018-05-27T01:58:21.126Z,0
2018-05-27T01:59:29.205Z,0
2018-05-27T02:00:37.286Z,0
2018-05-27T02:01:45.329Z,0
2018-05-27T02:02:53.396Z,0
2018-05-27T02:04:01.489Z,0
2018-05-27T02:05:09.519Z,0
2018-05-27T02:06:17.617Z,0
2018-05-27T02:07:25.661Z,0
2018-05-27T02:08:33.733Z,0
2018-05-27T02:09:41.812Z,0
2018-05-27T02:10:49.858Z,0
2018-05-27T02:11:57.954Z,0
2018-05-27T02:13:06.007Z,0
2018-05-27T02:14:14.081Z,0
2018-05-27T02:15:22.150Z,0
2018-05-27T02:16:30.201Z,0
2018-05-27T02:17:38.277Z,0
2018-05-27T02:18:46.341Z,0
2018-05-27T02:19:54.416Z,0
2018-05-27T02:21:02.507Z,0
2018-05-27T02:22:10.762Z,0
2018-05-27T02:23:18.633Z,0
2018-05-27T02:24:26.687Z,0
2018-05-27T02:25:34.756Z,0
2018-05-27T02:26:42.922Z,0
2018-05-27T02:27:50.899Z,0
2018-05-27T02:28:58.944Z,0
2018-05-27T02:30:07.030Z,0
2018-05-27T02:31:15.071Z,0
2018-05-27T02:32:23.165Z,0
2018-05-27T02:33:31.232Z,0
2018-05-27T02:34:39.280Z,0
2018-05-27T02:35:47.357Z,0
2018-05-27T02:36:55.429Z,0
2018-05-27T02:38:03.908Z,0
2018-05-27T02:39:11.564Z,0
2018-05-27T02:40:19.601Z,0
2018-05-27T02:41:27.692Z,0
2018-05-27T02:42:35.750Z,0
2018-05-27T02:43:43.847Z,0
2018-05-27T02:44:52.099Z,0
2018-05-27T02:45:59.932Z,0
2018-05-27T02:47:08.026Z,0
2018-05-27T02:48:16.107Z,0
2018-05-27T02:49:24.295Z,0
2018-05-27T02:50:32.613Z,0
2018-05-27T02:51:40.307Z,0
2018-05-27T02:52:48.370Z,0
2018-05-27T02:53:56.431Z,0
2018-05-27T02:55:04.499Z,0
2018-05-27T02:56:12.559Z,0
2018-05-27T02:57:20.653Z,0
2018-05-27T02:58:28.701Z,0
2018-05-27T02:59:36.825Z,0
2018-05-27T03:00:44.838Z,0
2018-05-27T03:01:52.891Z,0
2018-05-27T03:03:00.970Z,0
2018-05-27T03:04:09.037Z,0
2018-05-27T03:05:17.092Z,0
2018-05-27T03:06:25.191Z,0
2018-05-27T03:07:33.219Z,0
2018-05-27T03:08:41.305Z,0
2018-05-27T03:09:49.355Z,0
2018-05-27T03:10:57.458Z,0
2018-05-27T03:12:05.973Z,0
2018-05-27T03:13:13.572Z,0
2018-05-27T03:14:21.647Z,0
2018-05-27T03:15:29.712Z,0
2018-05-27T03:16:37.767Z,0
2018-05-27T03:17:45.844Z,0
2018-05-27T03:18:53.914Z,0
2018-05-27T03:20:01.992Z,0
2018-05-27T03:21:10.019Z,0
2018-05-27T03:22:18.107Z,0
2018-05-27T03:23:26.193Z,0
2018-05-27T03:24:34.253Z,0
2018-05-27T03:25:42.321Z,0
2018-05-27T03:26:50.378Z,0
2018-05-27T03:27:58.460Z,0
2018-05-27T03:29:06.538Z,0
2018-05-27T03:30:14.583Z,0
2018-05-27T03:31:22.663Z,0
2018-05-27T03:32:30.722Z,0
2018-05-27T03:33:38.825Z,5
2018-05-27T03:34:46.855Z,5
2018-05-27T03:35:54.929Z,5
2018-05-27T03:37:03.552Z,5
2018-05-27T03:38:11.315Z,5
2018-05-27T03:39:19.628Z,5
2018-05-27T03:40:27.765Z,5
2018-05-27T03:41:36.174Z,5
2018-05-27T03:42:43.522Z,10
2018-05-27T03:43:51.397Z,10
2018-05-27T03:45:00.019Z,10
2018-05-27T03:46:08.073Z,10
2018-05-27T03:47:15.695Z,10
2018-05-27T03:48:23.705Z,15
2018-05-27T03:49:31.735Z,15
2018-05-27T03:50:40.175Z,15
2018-05-27T03:51:47.897Z,20
2018-05-27T03:52:55.925Z,20
2018-05-27T03:54:04.013Z,20
2018-05-27T03:55:12.674Z,25
2018-05-27T03:56:20.112Z,25
2018-05-27T03:57:28.216Z,25
2018-05-27T03:58:36.312Z,30
2018-05-27T03:59:44.751Z,30
2018-05-27T04:00:52.744Z,35
2018-05-27T04:02:00.595Z,35
2018-05-27T04:03:08.541Z,35
2018-05-27T04:04:17.113Z,40
2018-05-27T04:05:25.316Z,40
2018-05-27T04:06:33.430Z,40
2018-05-27T04:07:41.308Z,45
2018-05-27T04:08:49.415Z,45
2018-05-27T04:09:57.614Z,45
2018-05-27T04:11:05.463Z,45
2018-05-27T04:12:13.096Z,50
2018-05-27T04:13:21.274Z,50
2018-05-27T04:14:29.235Z,50
2018-05-27T04:15:37.299Z,55
2018-05-27T04:16:45.363Z,55
2018-05-27T04:17:53.432Z,55
2018-05-27T04:19:01.506Z,60
2018-05-27T04:20:09.536Z,60
2018-05-27T04:21:17.636Z,65
2018-05-27T04:22:25.698Z,65
2018-05-27T04:23:33.772Z,70
2018-05-27T04:24:41.837Z,70
2018-05-27T04:25:49.867Z,75
2018-05-27T04:26:57.967Z,75
2018-05-27T04:28:06.059Z,75
2018-05-27T04:29:14.099Z,75
2018-05-27T04:30:22.182Z,75
2018-05-27T04:31:30.219Z,75
2018-05-27T04:32:38.313Z,75
2018-05-27T04:33:46.380Z,80
2018-05-27T04:34:54.444Z,80
2018-05-27T04:36:02.509Z,80
2018-05-27T04:37:10.578Z,80
2018-05-27T04:38:18.636Z,80
2018-05-27T04:39:26.704Z,80
2018-05-27T04:40:34.779Z,80
2018-05-27T04:41:42.843Z,85
2018-05-27T04:42:50.910Z,85
2018-05-27T04:43:58.988Z,85
2018-05-27T04:45:07.043Z,90
2018-05-27T04:46:15.129Z,90
2018-05-27T04:47:23.179Z,95
2018-05-27T04:48:31.252Z,100
2018-05-27T04:49:39.302Z,100
2018-05-27T04:50:47.415Z,105
2018-05-27T04:51:55.454Z,110
2018-05-27T04:53:03.520Z,110
2018-05-27T04:54:11.599Z,115
2018-05-27T04:55:19.642Z,120
2018-05-27T04:56:27.729Z,120
2018-05-27T04:57:35.793Z,120
2018-05-27T04:58:43.859Z,125
2018-05-27T04:59:51.941Z,125
2018-05-27T05:00:59.980Z,130
2018-05-27T05:02:08.072Z,130
2018-05-27T05:03:16.148Z,135
2018-05-27T05:04:24.215Z,140
2018-05-27T05:05:32.277Z,140
2018-05-27T05:06:40.336Z,145
2018-05-27T05:07:48.417Z,145
2018-05-27T05:08:56.474Z,150
2018-05-27T05:10:04.544Z,155
2018-05-27T05:11:12.618Z,155
2018-05-27T05:12:20.674Z,155
2018-05-27T05:13:28.761Z,160
2018-05-27T05:14:36.823Z,170
2018-05-27T05:15:44.881Z,175
2018-05-27T05:16:52.951Z,175
2018-05-27T05:18:01.039Z,180
2018-05-27T05:19:09.117Z,180
2018-05-27T05:20:17.157Z,185
2018-05-27T05:21:25.236Z,185
2018-05-27T05:22:33.300Z,190
2018-05-27T05:23:41.363Z,195
2018-05-27T05:24:49.410Z,200
2018-05-27T05:25:57.504Z,205
2018-05-27T05:27:05.604Z,215
2018-05-27T05:28:13.637Z,220
2018-05-27T05:29:21.695Z,220
2018-05-27T05:30:31.673Z,225
2018-05-27T05:31:38.093Z,230
2018-05-27T05:32:46.700Z,235
2018-05-27T05:33:54.272Z,245
2018-05-27T05:35:02.633Z,250
2018-05-27T05:36:10.679Z,260
2018-05-27T05:37:18.801Z,270
2018-05-27T05:38:26.255Z,275
2018-05-27T05:39:34.548Z,280
2018-05-27T05:40:42.402Z,285
2018-05-27T05:41:50.474Z,290
2018-05-27T05:42:58.535Z,295
2018-05-27T05:44:06.596Z,300
2018-05-27T05:45:16.098Z,300
2018-05-27T05:46:23.382Z,295
2018-05-27T05:47:31.479Z,290
2018-05-27T05:48:39.401Z,285
2018-05-27T05:49:46.960Z,285
2018-05-27T05:50:55.017Z,285
2018-05-27T05:52:03.115Z,285
2018-05-27T05:53:11.163Z,285
2018-05-27T05:54:19.804Z,285
2018-05-27T05:55:27.270Z,285
2018-05-27T05:56:35.367Z,290
2018-05-27T05:57:43.423Z,290
2018-05-27T05:58:51.499Z,290
2018-05-27T05:59:59.553Z,290
2018-05-27T06:01:07.687Z,285
2018-05-27T06:02:15.689Z,280
2018-05-27T06:03:23.782Z,275
2018-05-27T06:04:31.844Z,275
2018-05-27T06:05:41.315Z,270
2018-05-27T06:06:48.652Z,275
2018-05-27T06:07:56.585Z,275
2018-05-27T06:09:04.715Z,275
2018-05-27T06:10:12.206Z,280
2018-05-27T06:11:20.285Z,285
2018-05-27T06:12:28.993Z,285
2018-05-27T06:13:37.064Z,285
2018-05-27T06:14:45.081Z,290
2018-05-27T06:15:52.636Z,300
2018-05-27T06:17:00.635Z,300
2018-05-27T06:18:08.709Z,300
2018-05-27T06:19:16.924Z,300
2018-05-27T06:20:24.846Z,300
2018-05-27T06:21:33.348Z,300
2018-05-27T06:22:41.570Z,310
2018-05-27T06:23:50.006Z,305
2018-05-27T06:24:57.756Z,310
2018-05-27T06:26:05.826Z,310
2018-05-27T06:27:14.733Z,310
2018-05-27T06:28:23.224Z,310
2018-05-27T06:29:30.008Z,310
2018-05-27T06:30:38.092Z,310
2018-05-27T06:31:46.190Z,310
2018-05-27T06:32:54.077Z,315
2018-05-27T06:34:02.299Z,305
2018-05-27T06:35:10.271Z,310
2018-05-27T06:36:19.471Z,310
2018-05-27T06:37:26.377Z,315
2018-05-27T06:38:34.500Z,315
2018-05-27T06:39:42.467Z,320
2018-05-27T06:40:50.720Z,320
2018-05-27T06:41:58.767Z,320
2018-05-27T06:43:06.901Z,325
2018-05-27T06:44:14.819Z,330
2018-05-27T06:45:22.919Z,340
2018-05-27T06:46:30.472Z,350
2018-05-27T06:47:39.180Z,350
2018-05-27T06:48:48.246Z,355
2018-05-27T06:49:54.836Z,355
2018-05-27T06:51:03.353Z,360
2018-05-27T06:52:10.828Z,360
2018-05-27T06:53:19.449Z,370
2018-05-27T06:54:26.977Z,375
2018-05-27T06:55:35.047Z,380
2018-05-27T06:56:43.109Z,385
2018-05-27T06:57:51.197Z,385
2018-05-27T06:58:59.327Z,390
2018-05-27T07:00:08.796Z,390
2018-05-27T07:01:16.331Z,395
2018-05-27T07:02:23.476Z,375
2018-05-27T07:03:31.556Z,380
2018-05-27T07:04:39.715Z,390
2018-05-27T07:05:47.770Z,405
2018-05-27T07:06:56.330Z,445
2018-05-27T07:08:03.822Z,455
2018-05-27T07:09:12.503Z,550
2018-05-27T07:10:19.954Z,545
2018-05-27T07:11:28.460Z,515
2018-05-27T07:12:36.116Z,505
2018-05-27T07:13:44.191Z,540
2018-05-27T07:14:52.428Z,645
2018-05-27T07:16:00.518Z,830
2018-05-27T07:17:08.455Z,725
2018-05-27T07:18:16.715Z,770
2018-05-27T07:19:24.559Z,785
2018-05-27T07:20:32.940Z,770
2018-05-27T07:21:42.571Z,730
2018-05-27T07:22:48.797Z,690
2018-05-27T07:23:56.848Z,780
2018-05-27T07:25:05.480Z,1075
2018-05-27T07:26:13.450Z,1190
2018-05-27T07:27:21.087Z,1185
2018-05-27T07:28:29.524Z,1265
2018-05-27T07:29:37.228Z,1385
2018-05-27T07:30:45.292Z,1200
2018-05-27T07:31:53.363Z,1310
2018-05-27T07:33:01.746Z,1090
2018-05-27T07:34:09.569Z,915
2018-05-27T07:35:17.597Z,815
2018-05-27T07:36:25.979Z,835
2018-05-27T07:37:34.270Z,905
2018-05-27T07:38:42.403Z,1005
2018-05-27T07:39:49.897Z,1160
2018-05-27T07:40:58.407Z,1305
2018-05-27T07:42:06.524Z,1140
2018-05-27T07:43:14.695Z,975
2018-05-27T07:44:22.223Z,910
2018-05-27T07:45:30.271Z,1090
2018-05-27T07:46:38.391Z,1180
2018-05-27T07:47:47.083Z,950
2018-05-27T07:48:54.926Z,735
2018-05-27T07:50:02.664Z,680
2018-05-27T07:51:10.738Z,640
2018-05-27T07:52:18.884Z,615
2018-05-27T07:53:27.038Z,600
2018-05-27T07:54:35.181Z,590
2018-05-27T07:55:42.984Z,580
2018-05-27T07:56:51.759Z,580
2018-05-27T07:58:00.549Z,585
2018-05-27T07:59:07.528Z,595
2018-05-27T08:00:15.409Z,600
2018-05-27T08:01:23.376Z,605
2018-05-27T08:02:31.450Z,600
2018-05-27T08:03:39.884Z,595
2018-05-27T08:04:47.596Z,585
2018-05-27T08:05:55.674Z,585
2018-05-27T08:07:04.279Z,590
2018-05-27T08:08:12.188Z,595
2018-05-27T08:09:19.918Z,615
2018-05-27T08:10:27.997Z,600
2018-05-27T08:11:36.719Z,590
2018-05-27T08:12:44.732Z,585
2018-05-27T08:13:52.442Z,605
2018-05-27T08:15:00.270Z,740
2018-05-27T08:16:08.365Z,815
2018-05-27T08:17:17.010Z,910
2018-05-27T08:18:24.702Z,1215
2018-05-27T08:19:33.177Z,1485
2018-05-27T08:20:41.036Z,1455
2018-05-27T08:21:48.738Z,1435
2018-05-27T08:22:57.234Z,1290
2018-05-27T08:24:04.916Z,1005
2018-05-27T08:25:13.175Z,875
2018-05-27T08:26:21.050Z,1070
2018-05-27T08:27:29.126Z,1005
2018-05-27T08:28:37.203Z,1020
2018-05-27T08:29:45.290Z,1095
2018-05-27T08:30:53.360Z,1120
2018-05-27T08:32:03.744Z,1335
2018-05-27T08:33:09.531Z,1360
2018-05-27T08:34:17.597Z,1330
2018-05-27T08:35:26.208Z,1570
2018-05-27T08:36:33.739Z,1600
2018-05-27T08:37:41.829Z,1525
2018-05-27T08:38:49.865Z,1545
2018-05-27T08:39:57.980Z,1550
2018-05-27T08:41:06.060Z,1355
2018-05-27T08:42:14.126Z,1215
2018-05-27T08:43:22.279Z,1265
2018-05-27T08:44:30.293Z,1320
2018-05-27T08:45:38.385Z,1305
2018-05-27T08:46:46.477Z,1450
2018-05-27T08:47:54.523Z,1575
2018-05-27T08:49:02.655Z,1470
2018-05-27T08:50:10.722Z,1575
2018-05-27T08:51:18.831Z,1635
2018-05-27T08:52:26.874Z,1750
2018-05-27T08:53:34.962Z,1770
2018-05-27T08:54:43.047Z,1590
2018-05-27T08:55:51.131Z,1645
2018-05-27T08:56:59.186Z,1695
2018-05-27T08:58:07.264Z,1435
2018-05-27T08:59:15.351Z,1235
2018-05-27T09:00:23.431Z,1030
2018-05-27T09:01:31.650Z,915
2018-05-27T09:02:39.569Z,905
2018-05-27T09:03:47.716Z,950
2018-05-27T09:04:55.792Z,1240
2018-05-27T09:06:03.830Z,2205
2018-05-27T09:07:11.974Z,2240
2018-05-27T09:08:19.968Z,2230
2018-05-27T09:09:28.072Z,2125
2018-05-27T09:10:36.312Z,1700
2018-05-27T09:11:44.228Z,1050
2018-05-27T09:12:52.310Z,795
2018-05-27T09:14:00.386Z,755
2018-05-27T09:15:08.476Z,745
2018-05-27T09:16:16.543Z,730
2018-05-27T09:17:24.623Z,720
2018-05-27T09:18:32.708Z,715
2018-05-27T09:19:40.787Z,715
2018-05-27T09:20:48.863Z,725
2018-05-27T09:21:56.945Z,730
2018-05-27T09:23:05.043Z,735
2018-05-27T09:24:13.110Z,740
2018-05-27T09:25:21.189Z,745
2018-05-27T09:26:29.271Z,745
2018-05-27T09:27:37.365Z,760
2018-05-27T09:28:45.435Z,770
2018-05-27T09:29:53.510Z,790
2018-05-27T09:31:01.590Z,805
2018-05-27T09:32:09.652Z,820
2018-05-27T09:33:17.747Z,815
2018-05-27T09:34:25.822Z,815
2018-05-27T09:35:33.900Z,795
2018-05-27T09:36:41.998Z,770
2018-05-27T09:37:50.034Z,755
2018-05-27T09:38:58.138Z,755
2018-05-27T09:40:06.229Z,770
2018-05-27T09:41:14.311Z,790
2018-05-27T09:42:22.397Z,795
2018-05-27T09:43:30.462Z,795
2018-05-27T09:44:38.541Z,790
2018-05-27T09:45:46.623Z,780
2018-05-27T09:46:54.684Z,770
2018-05-27T09:48:02.772Z,765
2018-05-27T09:49:10.841Z,755
2018-05-27T09:50:18.930Z,745
2018-05-27T09:51:27.020Z,730
2018-05-27T09:52:35.091Z,710
2018-05-27T09:53:43.169Z,695
2018-05-27T09:54:51.249Z,680
2018-05-27T09:55:59.303Z,670
2018-05-27T09:57:07.398Z,660
2018-05-27T09:58:15.487Z,650
2018-05-27T09:59:23.553Z,630
2018-05-27T10:00:31.628Z,620
2018-05-27T10:01:39.681Z,610
2018-05-27T10:02:47.791Z,605
2018-05-27T10:03:55.878Z,595
2018-05-27T10:05:03.942Z,565
2018-05-27T10:06:12.022Z,545
2018-05-27T10:07:20.073Z,530
2018-05-27T10:08:28.178Z,510
2018-05-27T10:09:36.257Z,510
2018-05-27T10:10:44.335Z,500
2018-05-27T10:11:52.426Z,490
2018-05-27T10:13:00.491Z,485
2018-05-27T10:14:08.546Z,470
2018-05-27T10:15:16.637Z,460
2018-05-27T10:16:27.750Z,450
2018-05-27T10:17:35.813Z,440
2018-05-27T10:18:43.900Z,440
2018-05-27T10:19:51.974Z,440
2018-05-27T10:21:00.000Z,435
2018-05-27T10:22:08.136Z,430
2018-05-27T10:23:16.210Z,440
2018-05-27T10:24:24.278Z,430
2018-05-27T10:25:32.344Z,430
2018-05-27T10:26:40.425Z,425
2018-05-27T10:27:48.518Z,425
2018-05-27T10:28:56.598Z,425
2018-05-27T10:30:04.668Z,420
2018-05-27T10:31:12.732Z,420
2018-05-27T10:32:20.819Z,415
2018-05-27T10:33:31.915Z,410
2018-05-27T10:34:36.966Z,405
2018-05-27T10:35:45.045Z,405
2018-05-27T10:36:53.121Z,400
2018-05-27T10:38:01.178Z,395
2018-05-27T10:39:09.322Z,390
2018-05-27T10:40:17.349Z,385
2018-05-27T10:41:25.430Z,380
2018-05-27T10:42:33.498Z,375
2018-05-27T10:43:42.178Z,365
2018-05-27T10:44:50.267Z,365
2018-05-27T10:45:58.330Z,365
2018-05-27T10:47:06.407Z,355
2018-05-27T10:48:14.491Z,350
2018-05-27T10:49:22.550Z,345
2018-05-27T10:50:30.643Z,345
2018-05-27T10:51:38.717Z,340
2018-05-27T10:52:46.792Z,345
2018-05-27T10:53:54.865Z,350
2018-05-27T10:55:02.945Z,360
2018-05-27T10:56:11.016Z,370
2018-05-27T10:57:19.093Z,390
2018-05-27T10:58:27.145Z,420
2018-05-27T10:59:35.256Z,445
2018-05-27T11:00:43.318Z,480
2018-05-27T11:01:51.396Z,515
2018-05-27T11:02:59.452Z,540
2018-05-27T11:04:07.558Z,560
2018-05-27T11:05:15.636Z,570
2018-05-27T11:06:23.690Z,600
2018-05-27T11:07:31.789Z,620
2018-05-27T11:08:39.828Z,625
2018-05-27T11:09:47.932Z,625
2018-05-27T11:10:56.003Z,625
2018-05-27T11:12:04.071Z,630
2018-05-27T11:13:12.167Z,635
2018-05-27T11:14:20.227Z,630
2018-05-27T11:15:28.315Z,640
2018-05-27T11:16:36.393Z,640
2018-05-27T11:17:44.483Z,645
2018-05-27T11:18:52.601Z,655
2018-05-27T11:20:00.622Z,665
2018-05-27T11:21:08.697Z,670
2018-05-27T11:22:16.773Z,675
2018-05-27T11:23:24.843Z,675
2018-05-27T11:24:32.913Z,675
2018-05-27T11:25:40.991Z,675
2018-05-27T11:26:49.086Z,680
2018-05-27T11:27:57.152Z,675
2018-05-27T11:29:05.215Z,675
2018-05-27T11:30:13.293Z,675
2018-05-27T11:31:21.393Z,670
2018-05-27T11:32:29.444Z,670
2018-05-27T11:33:37.537Z,670
2018-05-27T11:34:45.659Z,665
2018-05-27T11:35:53.706Z,660
2018-05-27T11:37:01.769Z,650
2018-05-27T11:38:09.808Z,645
2018-05-27T11:39:17.919Z,645
2018-05-27T11:40:25.996Z,635
2018-05-27T11:41:34.073Z,630
2018-05-27T11:42:42.151Z,620
2018-05-27T11:43:50.207Z,615
2018-05-27T11:44:58.301Z,610
2018-05-27T11:46:06.348Z,605
2018-05-27T11:47:14.451Z,600
2018-05-27T11:48:22.541Z,595
2018-05-27T11:49:30.607Z,585
2018-05-27T11:50:38.687Z,580
2018-05-27T11:51:46.762Z,575
2018-05-27T11:52:54.833Z,570
2018-05-27T11:54:02.924Z,560
2018-05-27T11:55:10.993Z,545
2018-05-27T11:56:19.070Z,535
2018-05-27T11:57:27.146Z,535
2018-05-27T11:58:35.234Z,525
2018-05-27T11:59:43.306Z,515
2018-05-27T12:00:51.406Z,510
2018-05-27T12:01:59.470Z,500
2018-05-27T12:03:07.540Z,490
2018-05-27T12:04:15.604Z,485
2018-05-27T12:05:23.686Z,475
2018-05-27T12:06:31.748Z,470
2018-05-27T12:07:39.806Z,460
2018-05-27T12:08:47.905Z,455
2018-05-27T12:09:55.995Z,450
2018-05-27T12:11:04.058Z,445
2018-05-27T12:12:12.140Z,440
2018-05-27T12:13:20.195Z,430
2018-05-27T12:14:28.292Z,430
2018-05-27T12:15:36.354Z,430
2018-05-27T12:16:44.455Z,425
2018-05-27T12:17:52.515Z,420
2018-05-27T12:19:00.600Z,415
2018-05-27T12:20:08.665Z,410
2018-05-27T12:21:16.765Z,405
2018-05-27T12:22:24.819Z,400
2018-05-27T12:23:32.896Z,400
2018-05-27T12:24:40.976Z,400
2018-05-27T12:25:49.056Z,400
2018-05-27T12:26:57.112Z,405
2018-05-27T12:28:05.190Z,405
2018-05-27T12:29:13.281Z,410
2018-05-27T12:30:21.362Z,415
2018-05-27T12:31:29.427Z,420
2018-05-27T12:32:37.504Z,435
2018-05-27T12:33:45.587Z,435
2018-05-27T12:34:53.670Z,440
2018-05-27T12:36:01.740Z,445
2018-05-27T12:37:09.787Z,455
2018-05-27T12:38:17.893Z,460
2018-05-27T12:39:25.973Z,460
2018-05-27T12:40:34.104Z,460
2018-05-27T12:41:42.111Z,445
2018-05-27T12:42:50.211Z,440
2018-05-27T12:43:58.267Z,440
2018-05-27T12:45:06.352Z,435
2018-05-27T12:46:14.425Z,430
2018-05-27T12:47:22.506Z,430
2018-05-27T12:48:30.580Z,435
2018-05-27T12:49:38.658Z,435
2018-05-27T12:50:46.717Z,435
2018-05-27T12:51:54.797Z,440
2018-05-27T12:53:03.153Z,445
2018-05-27T12:54:10.952Z,460
2018-05-27T12:55:19.023Z,475
2018-05-27T12:56:27.100Z,480
2018-05-27T12:57:35.173Z,480
2018-05-27T12:58:43.245Z,485
2018-05-27T12:59:51.329Z,470
2018-05-27T13:00:59.407Z,460
2018-05-27T13:02:07.474Z,460
2018-05-27T13:03:15.540Z,480
2018-05-27T13:04:23.641Z,500
2018-05-27T13:05:31.690Z,535
2018-05-27T13:06:39.780Z,560
2018-05-27T13:07:47.859Z,570
2018-05-27T13:08:55.926Z,575
2018-05-27T13:10:04.070Z,575
2018-05-27T13:11:12.193Z,575
2018-05-27T13:12:20.146Z,575
2018-05-27T13:13:28.260Z,580
2018-05-27T13:14:36.327Z,585
2018-05-27T13:15:44.515Z,590
2018-05-27T13:16:52.681Z,590
2018-05-27T13:18:00.541Z,590
2018-05-27T13:19:08.608Z,590
2018-05-27T13:20:16.688Z,590
2018-05-27T13:21:24.762Z,595
2018-05-27T13:22:32.832Z,585
2018-05-27T13:23:40.972Z,580
2018-05-27T13:24:49.011Z,570
2018-05-27T13:25:57.074Z,560
2018-05-27T13:27:05.164Z,550
2018-05-27T13:28:13.221Z,545
2018-05-27T13:29:21.303Z,535
2018-05-27T13:30:29.367Z,530
2018-05-27T13:31:37.449Z,525
2018-05-27T13:32:45.551Z,525
2018-05-27T13:33:53.609Z,520
2018-05-27T13:35:01.670Z,520
2018-05-27T13:36:09.735Z,520
2018-05-27T13:37:17.829Z,520
2018-05-27T13:38:25.919Z,520
2018-05-27T13:39:33.996Z,515
2018-05-27T13:40:42.069Z,520
2018-05-27T13:41:50.107Z,510
2018-05-27T13:42:58.218Z,505
2018-05-27T13:44:06.276Z,505
2018-05-27T13:45:14.365Z,500
2018-05-27T13:46:22.432Z,495
2018-05-27T13:47:30.510Z,495
2018-05-27T13:48:38.590Z,485
2018-05-27T13:49:46.664Z,480
2018-05-27T13:50:54.727Z,485
2018-05-27T13:52:02.815Z,485
2018-05-27T13:53:10.877Z,490
2018-05-27T13:54:18.950Z,500
2018-05-27T13:55:27.087Z,500
2018-05-27T13:56:35.115Z,505
2018-05-27T13:57:43.178Z,510
2018-05-27T13:58:51.249Z,515
2018-05-27T13:59:59.318Z,520
2018-05-27T14:01:07.411Z,520
2018-05-27T14:02:15.489Z,525
2018-05-27T14:03:23.564Z,525
2018-05-27T14:04:31.628Z,530
2018-05-27T14:05:39.684Z,530
2018-05-27T14:06:47.791Z,535
2018-05-27T14:07:55.843Z,530
2018-05-27T14:09:03.918Z,535
2018-05-27T14:10:12.073Z,535
2018-05-27T14:11:20.045Z,540
2018-05-27T14:12:28.142Z,540
2018-05-27T14:13:36.228Z,540
2018-05-27T14:14:44.313Z,535
2018-05-27T14:15:52.385Z,535
2018-05-27T14:17:00.457Z,540
2018-05-27T14:18:08.531Z,535
2018-05-27T14:19:16.611Z,530
2018-05-27T14:20:24.704Z,535
2018-05-27T14:21:32.762Z,535
2018-05-27T14:22:40.833Z,530
2018-05-27T14:23:48.918Z,530
2018-05-27T14:24:56.986Z,530
2018-05-27T14:26:05.069Z,530
2018-05-27T14:27:13.146Z,525
2018-05-27T14:28:21.229Z,525
2018-05-27T14:29:29.277Z,525
2018-05-27T14:30:37.370Z,520
2018-05-27T14:31:45.444Z,520
2018-05-27T14:32:53.540Z,515
2018-05-27T14:34:01.579Z,515
2018-05-27T14:35:09.631Z,510
2018-05-27T14:36:17.738Z,510
2018-05-27T14:37:25.815Z,510
2018-05-27T14:38:33.898Z,500
2018-05-27T14:39:41.972Z,490
2018-05-27T14:40:50.015Z,485
2018-05-27T14:41:58.116Z,475
2018-05-27T14:43:06.192Z,475
2018-05-27T14:44:14.264Z,460
2018-05-27T14:45:22.327Z,455
2018-05-27T14:46:30.416Z,450
2018-05-27T14:47:38.517Z,440
2018-05-27T14:48:46.570Z,435
2018-05-27T14:49:54.662Z,430
2018-05-27T14:51:02.728Z,425
2018-05-27T14:52:10.853Z,415
2018-05-27T14:53:18.872Z,410
2018-05-27T14:54:26.942Z,400
2018-05-27T14:55:35.022Z,395
2018-05-27T14:56:43.099Z,390
2018-05-27T14:57:52.105Z,385
2018-05-27T14:58:59.258Z,380
2018-05-27T15:00:07.346Z,370
2018-05-27T15:01:15.408Z,360
2018-05-27T15:02:23.495Z,350
2018-05-27T15:03:31.559Z,350
2018-05-27T15:04:39.625Z,340
2018-05-27T15:05:47.717Z,330
2018-05-27T15:06:55.781Z,325
2018-05-27T15:08:03.857Z,320
2018-05-27T15:09:11.948Z,315
2018-05-27T15:10:19.987Z,310
2018-05-27T15:11:28.098Z,305
2018-05-27T15:12:36.159Z,305
2018-05-27T15:13:44.464Z,300
2018-05-27T15:14:52.589Z,300
2018-05-27T15:16:00.383Z,300
2018-05-27T15:17:08.461Z,300
2018-05-27T15:18:16.543Z,300
2018-05-27T15:19:26.003Z,300
2018-05-27T15:20:33.034Z,300
2018-05-27T15:21:40.757Z,305
2018-05-27T15:22:49.451Z,305
2018-05-27T15:23:56.921Z,310
2018-05-27T15:25:05.026Z,315
2018-05-27T15:26:13.059Z,320
2018-05-27T15:27:21.145Z,320
2018-05-27T15:28:29.702Z,315
2018-05-27T15:29:37.287Z,310
2018-05-27T15:30:45.350Z,310
2018-05-27T15:31:53.443Z,305
2018-05-27T15:33:01.507Z,300
2018-05-27T15:34:09.571Z,295
2018-05-27T15:35:17.641Z,290
2018-05-27T15:36:25.715Z,280
2018-05-27T15:37:33.807Z,275
2018-05-27T15:38:41.877Z,265
2018-05-27T15:39:50.148Z,255
2018-05-27T15:40:58.014Z,250
2018-05-27T15:42:06.089Z,240
2018-05-27T15:43:14.177Z,235
2018-05-27T15:44:22.240Z,230
2018-05-27T15:45:30.323Z,225
2018-05-27T15:46:38.397Z,225
2018-05-27T15:47:46.467Z,225
2018-05-27T15:48:54.556Z,225
2018-05-27T15:50:02.629Z,220
2018-05-27T15:51:10.693Z,220
2018-05-27T15:52:18.754Z,220